sensor_id;sensor_type;location;lat;lon;timestamp;P1;durP1;ratioP1;P2;durP2;ratioP2
48823;SDS011;34640;53.590;10.054;2023-02-11T00:01:33;55.33;;;21.25;;
48823;SDS011;34640;53.590;10.054;2023-02-11T00:04:08;59.58;;;21.73;;
48823;SDS011;34640;53.590;10.054;2023-02-11T00:06:41;60.58;;;20.92;;
48823;SDS011;34640;53.590;10.054;2023-02-11T00:09:15;54.50;;;21.58;;
48823;SDS011;34640;53.590;10.054;2023-02-11T00:11:49;57.72;;;21.75;;
48823;SDS011;34640;53.590;10.054;2023-02-11T00:14:24;53.05;;;22.40;;
48823;SDS011;34640;53.590;10.054;2023-02-11T00:16:58;58.92;;;22.20;;
48823;SDS011;34640;53.590;10.054;2023-02-11T00:19:32;52.30;;;22.85;;
48823;SDS011;34640;53.590;10.054;2023-02-11T00:22:06;54.33;;;22.42;;
48823;SDS011;34640;53.590;10.054;2023-02-11T00:24:40;53.40;;;21.83;;
48823;SDS011;34640;53.590;10.054;2023-02-11T00:27:14;52.15;;;22.35;;
48823;SDS011;34640;53.590;10.054;2023-02-11T00:29:48;52.20;;;21.92;;
48823;SDS011;34640;53.590;10.054;2023-02-11T00:32:22;55.60;;;22.70;;
48823;SDS011;34640;53.590;10.054;2023-02-11T00:34:56;59.75;;;23.15;;
48823;SDS011;34640;53.590;10.054;2023-02-11T00:37:30;53.92;;;21.35;;
48823;SDS011;34640;53.590;10.054;2023-02-11T00:40:07;53.95;;;22.48;;
48823;SDS011;34640;53.590;10.054;2023-02-11T00:42:42;62.65;;;23.92;;
48823;SDS011;34640;53.590;10.054;2023-02-11T00:45:17;62.78;;;22.40;;
48823;SDS011;34640;53.590;10.054;2023-02-11T00:47:52;57.35;;;21.40;;
48823;SDS011;34640;53.590;10.054;2023-02-11T00:50:26;65.72;;;23.83;;
48823;SDS011;34640;53.590;10.054;2023-02-11T00:53:00;58.78;;;22.00;;
48823;SDS011;34640;53.590;10.054;2023-02-11T00:55:33;59.85;;;23.33;;
48823;SDS011;34640;53.590;10.054;2023-02-11T00:58:07;54.30;;;23.45;;
48823;SDS011;34640;53.590;10.054;2023-02-11T01:00:42;59.33;;;22.70;;
48823;SDS011;34640;53.590;10.054;2023-02-11T01:03:16;63.25;;;24.50;;
48823;SDS011;34640;53.590;10.054;2023-02-11T01:05:50;58.22;;;23.80;;
48823;SDS011;34640;53.590;10.054;2023-02-11T01:08:24;70.30;;;23.30;;
48823;SDS011;34640;53.590;10.054;2023-02-11T01:10:59;55.80;;;22.25;;
48823;SDS011;34640;53.590;10.054;2023-02-11T01:13:34;55.20;;;25.25;;
48823;SDS011;34640;53.590;10.054;2023-02-11T01:16:13;66.90;;;25.00;;
48823;SDS011;34640;53.590;10.054;2023-02-11T01:18:47;59.22;;;24.02;;
48823;SDS011;34640;53.590;10.054;2023-02-11T01:21:21;54.67;;;22.98;;
48823;SDS011;34640;53.590;10.054;2023-02-11T01:23:55;63.17;;;24.35;;
48823;SDS011;34640;53.590;10.054;2023-02-11T01:26:29;55.90;;;23.65;;
48823;SDS011;34640;53.590;10.054;2023-02-11T01:29:02;66.05;;;24.38;;
48823;SDS011;34640;53.590;10.054;2023-02-11T01:31:37;58.80;;;25.08;;
48823;SDS011;34640;53.590;10.054;2023-02-11T01:34:12;55.60;;;23.17;;
48823;SDS011;34640;53.590;10.054;2023-02-11T01:36:46;55.00;;;23.27;;
48823;SDS011;34640;53.590;10.054;2023-02-11T01:39:20;55.63;;;23.30;;
48823;SDS011;34640;53.590;10.054;2023-02-11T01:41:54;64.60;;;24.58;;
48823;SDS011;34640;53.590;10.054;2023-02-11T01:44:28;57.15;;;25.58;;
48823;SDS011;34640;53.590;10.054;2023-02-11T01:47:05;55.72;;;26.05;;
48823;SDS011;34640;53.590;10.054;2023-02-11T01:49:40;61.22;;;25.92;;
48823;SDS011;34640;53.590;10.054;2023-02-11T01:52:17;65.60;;;25.27;;
48823;SDS011;34640;53.590;10.054;2023-02-11T01:54:54;59.30;;;23.48;;
48823;SDS011;34640;53.590;10.054;2023-02-11T01:57:50;55.05;;;23.80;;
48823;SDS011;34640;53.590;10.054;2023-02-11T02:00:28;55.65;;;23.27;;
48823;SDS011;34640;53.590;10.054;2023-02-11T02:03:08;56.28;;;25.08;;
48823;SDS011;34640;53.590;10.054;2023-02-11T02:05:48;54.65;;;23.58;;
48823;SDS011;34640;53.590;10.054;2023-02-11T02:08:27;57.17;;;24.08;;
48823;SDS011;34640;53.590;10.054;2023-02-11T02:11:06;59.05;;;23.85;;
48823;SDS011;34640;53.590;10.054;2023-02-11T02:13:40;59.90;;;24.35;;
48823;SDS011;34640;53.590;10.054;2023-02-11T02:16:15;55.97;;;23.80;;
48823;SDS011;34640;53.590;10.054;2023-02-11T02:18:53;57.50;;;22.77;;
48823;SDS011;34640;53.590;10.054;2023-02-11T02:21:43;65.22;;;24.00;;
48823;SDS011;34640;53.590;10.054;2023-02-11T02:27:32;56.03;;;24.23;;
48823;SDS011;34640;53.590;10.054;2023-02-11T02:33:44;54.88;;;23.00;;
48823;SDS011;34640;53.590;10.054;2023-02-11T02:36:27;59.50;;;23.10;;
48823;SDS011;34640;53.590;10.054;2023-02-11T02:39:07;56.25;;;23.52;;
48823;SDS011;34640;53.590;10.054;2023-02-11T02:41:44;51.97;;;22.55;;
48823;SDS011;34640;53.590;10.054;2023-02-11T02:44:21;54.53;;;22.30;;
48823;SDS011;34640;53.590;10.054;2023-02-11T02:46:55;62.83;;;24.23;;
48823;SDS011;34640;53.590;10.054;2023-02-11T02:49:31;59.30;;;22.45;;
48823;SDS011;34640;53.590;10.054;2023-02-11T02:52:15;59.85;;;22.50;;
48823;SDS011;34640;53.590;10.054;2023-02-11T02:55:05;50.03;;;20.00;;
48823;SDS011;34640;53.590;10.054;2023-02-11T02:57:52;50.70;;;20.75;;
48823;SDS011;34640;53.590;10.054;2023-02-11T03:00:43;55.72;;;21.27;;
48823;SDS011;34640;53.590;10.054;2023-02-11T03:06:01;49.25;;;18.60;;
48823;SDS011;34640;53.590;10.054;2023-02-11T03:08:41;45.63;;;20.55;;
48823;SDS011;34640;53.590;10.054;2023-02-11T03:11:19;47.20;;;18.95;;
48823;SDS011;34640;53.590;10.054;2023-02-11T03:13:54;54.20;;;21.48;;
48823;SDS011;34640;53.590;10.054;2023-02-11T03:16:29;49.72;;;20.08;;
48823;SDS011;34640;53.590;10.054;2023-02-11T03:19:08;49.40;;;21.15;;
48823;SDS011;34640;53.590;10.054;2023-02-11T03:21:47;48.90;;;21.42;;
48823;SDS011;34640;53.590;10.054;2023-02-11T03:24:24;56.10;;;21.27;;
48823;SDS011;34640;53.590;10.054;2023-02-11T03:27:02;47.35;;;20.90;;
48823;SDS011;34640;53.590;10.054;2023-02-11T03:29:42;50.28;;;20.83;;
48823;SDS011;34640;53.590;10.054;2023-02-11T03:32:24;56.35;;;21.08;;
48823;SDS011;34640;53.590;10.054;2023-02-11T03:35:02;48.15;;;19.35;;
48823;SDS011;34640;53.590;10.054;2023-02-11T03:37:44;53.80;;;17.98;;
48823;SDS011;34640;53.590;10.054;2023-02-11T03:40:24;44.60;;;18.50;;
48823;SDS011;34640;53.590;10.054;2023-02-11T03:43:02;50.67;;;19.70;;
48823;SDS011;34640;53.590;10.054;2023-02-11T03:45:42;48.35;;;18.25;;
48823;SDS011;34640;53.590;10.054;2023-02-11T03:48:19;46.53;;;19.35;;
48823;SDS011;34640;53.590;10.054;2023-02-11T03:50:55;45.03;;;18.73;;
48823;SDS011;34640;53.590;10.054;2023-02-11T03:53:33;49.53;;;17.80;;
48823;SDS011;34640;53.590;10.054;2023-02-11T03:56:09;44.47;;;17.55;;
48823;SDS011;34640;53.590;10.054;2023-02-11T03:58:47;46.22;;;18.13;;
48823;SDS011;34640;53.590;10.054;2023-02-11T04:01:21;41.55;;;16.77;;
48823;SDS011;34640;53.590;10.054;2023-02-11T04:03:55;53.92;;;17.55;;
48823;SDS011;34640;53.590;10.054;2023-02-11T04:06:29;50.80;;;18.02;;
48823;SDS011;34640;53.590;10.054;2023-02-11T04:09:04;48.80;;;17.10;;
48823;SDS011;34640;53.590;10.054;2023-02-11T04:11:38;47.50;;;15.68;;
48823;SDS011;34640;53.590;10.054;2023-02-11T04:14:11;44.63;;;17.13;;
48823;SDS011;34640;53.590;10.054;2023-02-11T04:16:45;47.55;;;15.55;;
48823;SDS011;34640;53.590;10.054;2023-02-11T04:19:19;44.40;;;16.10;;
48823;SDS011;34640;53.590;10.054;2023-02-11T04:21:52;42.45;;;17.17;;
48823;SDS011;34640;53.590;10.054;2023-02-11T04:24:28;41.92;;;15.15;;
48823;SDS011;34640;53.590;10.054;2023-02-11T04:27:01;41.25;;;15.88;;
48823;SDS011;34640;53.590;10.054;2023-02-11T04:29:35;42.20;;;14.90;;
48823;SDS011;34640;53.590;10.054;2023-02-11T04:32:09;43.78;;;15.52;;
48823;SDS011;34640;53.590;10.054;2023-02-11T04:34:43;45.65;;;14.77;;
48823;SDS011;34640;53.590;10.054;2023-02-11T04:37:17;34.85;;;14.07;;
48823;SDS011;34640;53.590;10.054;2023-02-11T04:39:52;38.17;;;13.45;;
48823;SDS011;34640;53.590;10.054;2023-02-11T04:42:26;42.88;;;13.93;;
48823;SDS011;34640;53.590;10.054;2023-02-11T04:45:00;36.28;;;14.23;;
48823;SDS011;34640;53.590;10.054;2023-02-11T04:47:34;38.63;;;13.23;;
48823;SDS011;34640;53.590;10.054;2023-02-11T04:50:09;45.90;;;14.20;;
48823;SDS011;34640;53.590;10.054;2023-02-11T04:52:42;42.80;;;14.43;;
48823;SDS011;34640;53.590;10.054;2023-02-11T04:55:18;41.30;;;13.35;;
48823;SDS011;34640;53.590;10.054;2023-02-11T04:57:51;39.47;;;13.43;;
48823;SDS011;34640;53.590;10.054;2023-02-11T05:00:26;48.88;;;15.65;;
48823;SDS011;34640;53.590;10.054;2023-02-11T05:03:00;38.20;;;13.02;;
48823;SDS011;34640;53.590;10.054;2023-02-11T05:05:36;32.97;;;12.63;;
48823;SDS011;34640;53.590;10.054;2023-02-11T05:08:10;42.08;;;13.07;;
48823;SDS011;34640;53.590;10.054;2023-02-11T05:10:46;37.08;;;13.35;;
48823;SDS011;34640;53.590;10.054;2023-02-11T05:13:20;42.60;;;13.02;;
48823;SDS011;34640;53.590;10.054;2023-02-11T05:15:54;39.75;;;13.63;;
48823;SDS011;34640;53.590;10.054;2023-02-11T05:18:27;41.45;;;13.27;;
48823;SDS011;34640;53.590;10.054;2023-02-11T05:21:04;39.95;;;13.63;;
48823;SDS011;34640;53.590;10.054;2023-02-11T05:23:38;36.08;;;12.90;;
48823;SDS011;34640;53.590;10.054;2023-02-11T05:26:14;40.45;;;13.20;;
48823;SDS011;34640;53.590;10.054;2023-02-11T05:28:48;41.65;;;12.88;;
48823;SDS011;34640;53.590;10.054;2023-02-11T05:31:22;34.65;;;12.52;;
48823;SDS011;34640;53.590;10.054;2023-02-11T05:33:55;34.72;;;12.98;;
48823;SDS011;34640;53.590;10.054;2023-02-11T05:36:29;36.40;;;12.05;;
48823;SDS011;34640;53.590;10.054;2023-02-11T05:39:04;29.70;;;11.98;;
48823;SDS011;34640;53.590;10.054;2023-02-11T05:41:40;34.83;;;13.07;;
48823;SDS011;34640;53.590;10.054;2023-02-11T05:44:13;30.08;;;11.63;;
48823;SDS011;34640;53.590;10.054;2023-02-11T05:46:47;31.70;;;12.30;;
48823;SDS011;34640;53.590;10.054;2023-02-11T05:49:21;36.60;;;12.40;;
48823;SDS011;34640;53.590;10.054;2023-02-11T05:51:55;29.65;;;12.10;;
48823;SDS011;34640;53.590;10.054;2023-02-11T05:54:29;28.23;;;11.05;;
48823;SDS011;34640;53.590;10.054;2023-02-11T05:57:04;29.63;;;11.63;;
48823;SDS011;34640;53.590;10.054;2023-02-11T05:59:37;26.70;;;10.68;;
48823;SDS011;34640;53.590;10.054;2023-02-11T06:02:12;28.90;;;11.27;;
48823;SDS011;34640;53.590;10.054;2023-02-11T06:04:45;32.35;;;11.70;;
48823;SDS011;34640;53.590;10.054;2023-02-11T06:07:19;29.17;;;12.95;;
48823;SDS011;34640;53.590;10.054;2023-02-11T06:09:53;35.58;;;14.25;;
48823;SDS011;34640;53.590;10.054;2023-02-11T06:12:28;33.47;;;14.00;;
48823;SDS011;34640;53.590;10.054;2023-02-11T06:15:02;31.92;;;14.00;;
48823;SDS011;34640;53.590;10.054;2023-02-11T06:17:36;28.90;;;14.70;;
48823;SDS011;34640;53.590;10.054;2023-02-11T06:20:10;32.97;;;15.32;;
48823;SDS011;34640;53.590;10.054;2023-02-11T06:22:45;36.42;;;15.13;;
48823;SDS011;34640;53.590;10.054;2023-02-11T06:25:19;33.60;;;13.80;;
48823;SDS011;34640;53.590;10.054;2023-02-11T06:27:54;28.67;;;14.02;;
48823;SDS011;34640;53.590;10.054;2023-02-11T06:30:28;31.85;;;14.32;;
48823;SDS011;34640;53.590;10.054;2023-02-11T06:33:01;32.13;;;13.65;;
48823;SDS011;34640;53.590;10.054;2023-02-11T06:35:36;29.23;;;14.10;;
48823;SDS011;34640;53.590;10.054;2023-02-11T06:38:10;33.20;;;13.43;;
48823;SDS011;34640;53.590;10.054;2023-02-11T06:40:48;32.33;;;14.45;;
48823;SDS011;34640;53.590;10.054;2023-02-11T06:43:24;30.23;;;14.50;;
48823;SDS011;34640;53.590;10.054;2023-02-11T06:45:57;34.15;;;16.20;;
48823;SDS011;34640;53.590;10.054;2023-02-11T06:48:31;26.67;;;12.95;;
48823;SDS011;34640;53.590;10.054;2023-02-11T06:51:05;23.70;;;12.38;;
48823;SDS011;34640;53.590;10.054;2023-02-11T06:53:41;28.55;;;12.10;;
48823;SDS011;34640;53.590;10.054;2023-02-11T06:56:18;26.20;;;11.77;;
48823;SDS011;34640;53.590;10.054;2023-02-11T06:58:54;27.27;;;12.38;;
48823;SDS011;34640;53.590;10.054;2023-02-11T07:01:28;28.30;;;10.73;;
48823;SDS011;34640;53.590;10.054;2023-02-11T07:04:02;30.90;;;11.88;;
48823;SDS011;34640;53.590;10.054;2023-02-11T07:06:35;19.63;;;10.10;;
48823;SDS011;34640;53.590;10.054;2023-02-11T07:09:09;24.30;;;11.07;;
48823;SDS011;34640;53.590;10.054;2023-02-11T07:11:43;22.55;;;10.60;;
48823;SDS011;34640;53.590;10.054;2023-02-11T07:14:18;26.35;;;10.82;;
48823;SDS011;34640;53.590;10.054;2023-02-11T07:16:52;28.67;;;10.02;;
48823;SDS011;34640;53.590;10.054;2023-02-11T07:19:26;24.88;;;11.05;;
48823;SDS011;34640;53.590;10.054;2023-02-11T07:21:59;22.42;;;9.60;;
48823;SDS011;34640;53.590;10.054;2023-02-11T07:24:33;23.33;;;9.75;;
48823;SDS011;34640;53.590;10.054;2023-02-11T07:27:06;25.35;;;11.05;;
48823;SDS011;34640;53.590;10.054;2023-02-11T07:29:42;25.88;;;10.32;;
48823;SDS011;34640;53.590;10.054;2023-02-11T07:32:17;20.23;;;10.15;;
48823;SDS011;34640;53.590;10.054;2023-02-11T07:34:50;25.83;;;11.73;;
48823;SDS011;34640;53.590;10.054;2023-02-11T07:37:24;24.80;;;11.15;;
48823;SDS011;34640;53.590;10.054;2023-02-11T07:39:58;23.20;;;11.00;;
48823;SDS011;34640;53.590;10.054;2023-02-11T07:42:32;27.00;;;12.18;;
48823;SDS011;34640;53.590;10.054;2023-02-11T07:45:08;27.70;;;11.70;;
48823;SDS011;34640;53.590;10.054;2023-02-11T07:47:42;30.10;;;14.25;;
48823;SDS011;34640;53.590;10.054;2023-02-11T07:50:17;24.30;;;11.75;;
48823;SDS011;34640;53.590;10.054;2023-02-11T07:52:56;27.27;;;11.77;;
48823;SDS011;34640;53.590;10.054;2023-02-11T07:55:30;26.83;;;12.93;;
48823;SDS011;34640;53.590;10.054;2023-02-11T07:58:05;28.52;;;12.52;;
48823;SDS011;34640;53.590;10.054;2023-02-11T08:00:40;34.83;;;16.17;;
48823;SDS011;34640;53.590;10.054;2023-02-11T08:03:14;32.83;;;14.52;;
48823;SDS011;34640;53.590;10.054;2023-02-11T08:05:47;37.25;;;16.63;;
48823;SDS011;34640;53.590;10.054;2023-02-11T08:08:21;28.20;;;12.77;;
48823;SDS011;34640;53.590;10.054;2023-02-11T08:10:55;26.13;;;12.15;;
48823;SDS011;34640;53.590;10.054;2023-02-11T08:13:29;29.83;;;12.65;;
48823;SDS011;34640;53.590;10.054;2023-02-11T08:16:04;29.65;;;12.30;;
48823;SDS011;34640;53.590;10.054;2023-02-11T08:18:38;24.83;;;12.07;;
48823;SDS011;34640;53.590;10.054;2023-02-11T08:21:12;27.52;;;12.30;;
48823;SDS011;34640;53.590;10.054;2023-02-11T08:23:46;28.88;;;11.90;;
48823;SDS011;34640;53.590;10.054;2023-02-11T08:26:22;23.83;;;11.60;;
48823;SDS011;34640;53.590;10.054;2023-02-11T08:28:57;34.88;;;12.40;;
48823;SDS011;34640;53.590;10.054;2023-02-11T08:31:33;27.98;;;11.50;;
48823;SDS011;34640;53.590;10.054;2023-02-11T08:34:09;26.25;;;11.18;;
48823;SDS011;34640;53.590;10.054;2023-02-11T08:36:45;29.42;;;12.40;;
48823;SDS011;34640;53.590;10.054;2023-02-11T08:39:20;27.55;;;11.88;;
48823;SDS011;34640;53.590;10.054;2023-02-11T08:41:54;30.88;;;12.00;;
48823;SDS011;34640;53.590;10.054;2023-02-11T08:44:29;24.65;;;12.10;;
48823;SDS011;34640;53.590;10.054;2023-02-11T08:47:04;27.60;;;11.60;;
48823;SDS011;34640;53.590;10.054;2023-02-11T08:49:37;26.65;;;12.15;;
48823;SDS011;34640;53.590;10.054;2023-02-11T08:52:13;29.73;;;11.50;;
48823;SDS011;34640;53.590;10.054;2023-02-11T08:54:47;27.77;;;12.40;;
48823;SDS011;34640;53.590;10.054;2023-02-11T08:57:22;29.42;;;11.57;;
48823;SDS011;34640;53.590;10.054;2023-02-11T08:59:55;30.73;;;11.75;;
48823;SDS011;34640;53.590;10.054;2023-02-11T09:02:31;23.88;;;11.57;;
48823;SDS011;34640;53.590;10.054;2023-02-11T09:05:05;30.88;;;11.80;;
48823;SDS011;34640;53.590;10.054;2023-02-11T09:07:39;22.25;;;10.90;;
48823;SDS011;34640;53.590;10.054;2023-02-11T09:10:13;26.45;;;10.95;;
48823;SDS011;34640;53.590;10.054;2023-02-11T09:12:47;25.42;;;10.40;;
48823;SDS011;34640;53.590;10.054;2023-02-11T09:15:20;26.40;;;10.82;;
48823;SDS011;34640;53.590;10.054;2023-02-11T09:17:55;25.35;;;10.60;;
48823;SDS011;34640;53.590;10.054;2023-02-11T09:20:29;24.33;;;11.07;;
48823;SDS011;34640;53.590;10.054;2023-02-11T09:23:03;29.73;;;10.75;;
48823;SDS011;34640;53.590;10.054;2023-02-11T09:25:37;31.40;;;11.05;;
48823;SDS011;34640;53.590;10.054;2023-02-11T09:28:12;24.20;;;10.48;;
48823;SDS011;34640;53.590;10.054;2023-02-11T09:30:46;30.05;;;10.82;;
48823;SDS011;34640;53.590;10.054;2023-02-11T09:33:21;25.70;;;9.98;;
48823;SDS011;34640;53.590;10.054;2023-02-11T09:35:54;27.17;;;9.57;;
48823;SDS011;34640;53.590;10.054;2023-02-11T09:38:28;22.63;;;9.70;;
48823;SDS011;34640;53.590;10.054;2023-02-11T09:41:03;31.88;;;9.55;;
48823;SDS011;34640;53.590;10.054;2023-02-11T09:43:41;25.33;;;8.88;;
48823;SDS011;34640;53.590;10.054;2023-02-11T09:46:18;28.48;;;9.15;;
48823;SDS011;34640;53.590;10.054;2023-02-11T09:48:55;24.15;;;8.68;;
48823;SDS011;34640;53.590;10.054;2023-02-11T09:51:32;27.77;;;9.48;;
48823;SDS011;34640;53.590;10.054;2023-02-11T09:54:14;29.10;;;9.13;;
48823;SDS011;34640;53.590;10.054;2023-02-11T09:56:53;22.67;;;8.60;;
48823;SDS011;34640;53.590;10.054;2023-02-11T09:59:26;21.92;;;8.60;;
48823;SDS011;34640;53.590;10.054;2023-02-11T10:02:01;22.05;;;7.60;;
48823;SDS011;34640;53.590;10.054;2023-02-11T10:04:46;20.63;;;7.65;;
48823;SDS011;34640;53.590;10.054;2023-02-11T10:07:39;28.63;;;7.72;;
48823;SDS011;34640;53.590;10.054;2023-02-11T10:10:24;31.33;;;8.77;;
48823;SDS011;34640;53.590;10.054;2023-02-11T10:13:15;23.10;;;7.23;;
48823;SDS011;34640;53.590;10.054;2023-02-11T10:16:03;23.02;;;7.00;;
48823;SDS011;34640;53.590;10.054;2023-02-11T10:25:16;23.50;;;6.78;;
48823;SDS011;34640;53.590;10.054;2023-02-11T10:27:54;24.13;;;6.60;;
48823;SDS011;34640;53.590;10.054;2023-02-11T10:30:32;23.50;;;7.15;;
48823;SDS011;34640;53.590;10.054;2023-02-11T10:33:11;19.17;;;5.68;;
48823;SDS011;34640;53.590;10.054;2023-02-11T10:35:52;31.20;;;6.70;;
48823;SDS011;34640;53.590;10.054;2023-02-11T10:38:26;25.80;;;7.05;;
48823;SDS011;34640;53.590;10.054;2023-02-11T10:41:02;20.10;;;6.32;;
48823;SDS011;34640;53.590;10.054;2023-02-11T10:43:36;25.17;;;5.70;;
48823;SDS011;34640;53.590;10.054;2023-02-11T10:46:15;19.38;;;5.07;;
48823;SDS011;34640;53.590;10.054;2023-02-11T10:48:53;26.33;;;6.03;;
48823;SDS011;34640;53.590;10.054;2023-02-11T10:51:27;17.85;;;5.20;;
48823;SDS011;34640;53.590;10.054;2023-02-11T10:54:16;21.45;;;4.90;;
48823;SDS011;34640;53.590;10.054;2023-02-11T10:56:58;19.25;;;5.85;;
48823;SDS011;34640;53.590;10.054;2023-02-11T10:59:33;22.83;;;5.43;;
48823;SDS011;34640;53.590;10.054;2023-02-11T11:02:18;21.05;;;5.18;;
48823;SDS011;34640;53.590;10.054;2023-02-11T11:04:55;20.45;;;4.47;;
48823;SDS011;34640;53.590;10.054;2023-02-11T11:07:31;24.67;;;5.72;;
48823;SDS011;34640;53.590;10.054;2023-02-11T11:10:07;18.00;;;5.45;;
48823;SDS011;34640;53.590;10.054;2023-02-11T11:13:00;28.73;;;4.90;;
48823;SDS011;34640;53.590;10.054;2023-02-11T11:15:34;35.15;;;5.57;;
48823;SDS011;34640;53.590;10.054;2023-02-11T11:18:09;13.48;;;4.00;;
48823;SDS011;34640;53.590;10.054;2023-02-11T11:20:54;13.40;;;4.13;;
48823;SDS011;34640;53.590;10.054;2023-02-11T11:23:31;17.17;;;3.92;;
48823;SDS011;34640;53.590;10.054;2023-02-11T11:26:08;21.38;;;4.90;;
48823;SDS011;34640;53.590;10.054;2023-02-11T11:28:56;16.05;;;3.97;;
48823;SDS011;34640;53.590;10.054;2023-02-11T11:31:35;26.45;;;9.13;;
48823;SDS011;34640;53.590;10.054;2023-02-11T11:34:20;16.10;;;4.00;;
48823;SDS011;34640;53.590;10.054;2023-02-11T11:36:59;21.58;;;3.60;;
48823;SDS011;34640;53.590;10.054;2023-02-11T11:39:42;18.17;;;4.45;;
48823;SDS011;34640;53.590;10.054;2023-02-11T11:42:27;15.38;;;3.20;;
48823;SDS011;34640;53.590;10.054;2023-02-11T11:45:20;15.75;;;3.78;;
48823;SDS011;34640;53.590;10.054;2023-02-11T11:47:58;12.50;;;2.55;;
48823;SDS011;34640;53.590;10.054;2023-02-11T11:50:38;13.95;;;3.50;;
48823;SDS011;34640;53.590;10.054;2023-02-11T11:53:17;14.20;;;3.28;;
48823;SDS011;34640;53.590;10.054;2023-02-11T11:55:57;20.45;;;4.60;;
48823;SDS011;34640;53.590;10.054;2023-02-11T11:58:33;17.75;;;3.20;;
48823;SDS011;34640;53.590;10.054;2023-02-11T12:01:13;17.83;;;3.70;;
48823;SDS011;34640;53.590;10.054;2023-02-11T12:04:07;13.65;;;3.05;;
48823;SDS011;34640;53.590;10.054;2023-02-11T12:06:58;8.68;;;2.53;;
48823;SDS011;34640;53.590;10.054;2023-02-11T12:09:39;12.70;;;3.25;;
48823;SDS011;34640;53.590;10.054;2023-02-11T12:12:25;12.77;;;3.15;;
48823;SDS011;34640;53.590;10.054;2023-02-11T12:15:14;10.35;;;3.05;;
48823;SDS011;34640;53.590;10.054;2023-02-11T12:18:08;12.35;;;4.38;;
48823;SDS011;34640;53.590;10.054;2023-02-11T12:21:03;8.80;;;2.88;;
48823;SDS011;34640;53.590;10.054;2023-02-11T12:23:52;13.70;;;3.58;;
48823;SDS011;34640;53.590;10.054;2023-02-11T12:26:40;10.55;;;2.92;;
48823;SDS011;34640;53.590;10.054;2023-02-11T12:29:19;11.50;;;2.85;;
48823;SDS011;34640;53.590;10.054;2023-02-11T12:32:04;10.57;;;2.70;;
48823;SDS011;34640;53.590;10.054;2023-02-11T12:34:56;8.43;;;3.00;;
48823;SDS011;34640;53.590;10.054;2023-02-11T12:37:45;10.80;;;2.28;;
48823;SDS011;34640;53.590;10.054;2023-02-11T12:40:39;10.82;;;2.42;;
48823;SDS011;34640;53.590;10.054;2023-02-11T12:43:19;8.02;;;2.53;;
48823;SDS011;34640;53.590;10.054;2023-02-11T12:45:59;11.38;;;2.95;;
48823;SDS011;34640;53.590;10.054;2023-02-11T12:48:47;14.60;;;3.80;;
48823;SDS011;34640;53.590;10.054;2023-02-11T12:51:43;10.38;;;3.38;;
48823;SDS011;34640;53.590;10.054;2023-02-11T12:54:28;16.60;;;3.03;;
48823;SDS011;34640;53.590;10.054;2023-02-11T12:57:10;14.98;;;2.85;;
48823;SDS011;34640;53.590;10.054;2023-02-11T12:59:52;12.15;;;3.53;;
48823;SDS011;34640;53.590;10.054;2023-02-11T13:02:33;13.43;;;3.00;;
48823;SDS011;34640;53.590;10.054;2023-02-11T13:05:19;11.98;;;2.47;;
48823;SDS011;34640;53.590;10.054;2023-02-11T13:08:00;10.82;;;2.70;;
48823;SDS011;34640;53.590;10.054;2023-02-11T13:10:39;15.15;;;3.17;;
48823;SDS011;34640;53.590;10.054;2023-02-11T13:13:17;17.10;;;3.10;;
48823;SDS011;34640;53.590;10.054;2023-02-11T13:15:54;13.13;;;3.40;;
48823;SDS011;34640;53.590;10.054;2023-02-11T13:18:38;13.90;;;2.47;;
48823;SDS011;34640;53.590;10.054;2023-02-11T13:21:28;16.38;;;2.83;;
48823;SDS011;34640;53.590;10.054;2023-02-11T13:24:12;12.63;;;2.67;;
48823;SDS011;34640;53.590;10.054;2023-02-11T13:26:55;14.68;;;2.67;;
48823;SDS011;34640;53.590;10.054;2023-02-11T13:29:35;13.02;;;2.80;;
48823;SDS011;34640;53.590;10.054;2023-02-11T13:32:20;27.45;;;3.60;;
48823;SDS011;34640;53.590;10.054;2023-02-11T13:34:55;13.07;;;2.95;;
48823;SDS011;34640;53.590;10.054;2023-02-11T13:37:31;16.77;;;2.85;;
48823;SDS011;34640;53.590;10.054;2023-02-11T13:40:19;18.23;;;3.80;;
48823;SDS011;34640;53.590;10.054;2023-02-11T13:42:56;16.40;;;3.05;;
48823;SDS011;34640;53.590;10.054;2023-02-11T13:45:33;19.00;;;3.85;;
48823;SDS011;34640;53.590;10.054;2023-02-11T13:48:14;22.98;;;4.45;;
48823;SDS011;34640;53.590;10.054;2023-02-11T13:50:51;19.73;;;3.33;;
48823;SDS011;34640;53.590;10.054;2023-02-11T13:53:27;27.20;;;5.07;;
48823;SDS011;34640;53.590;10.054;2023-02-11T13:56:07;25.83;;;3.72;;
48823;SDS011;34640;53.590;10.054;2023-02-11T13:58:46;23.60;;;3.25;;
48823;SDS011;34640;53.590;10.054;2023-02-11T14:01:40;23.15;;;3.80;;
48823;SDS011;34640;53.590;10.054;2023-02-11T14:05:00;21.75;;;3.10;;
48823;SDS011;34640;53.590;10.054;2023-02-11T14:08:13;23.77;;;3.78;;
48823;SDS011;34640;53.590;10.054;2023-02-11T14:14:18;18.98;;;3.60;;
48823;SDS011;34640;53.590;10.054;2023-02-11T14:20:03;12.00;;;3.40;;
48823;SDS011;34640;53.590;10.054;2023-02-11T14:22:57;23.48;;;4.57;;
48823;SDS011;34640;53.590;10.054;2023-02-11T14:25:31;21.70;;;3.28;;
48823;SDS011;34640;53.590;10.054;2023-02-11T14:28:08;13.38;;;2.65;;
48823;SDS011;34640;53.590;10.054;2023-02-11T14:30:55;19.30;;;3.42;;
48823;SDS011;34640;53.590;10.054;2023-02-11T14:33:49;14.05;;;2.42;;
48823;SDS011;34640;53.590;10.054;2023-02-11T14:36:44;14.63;;;3.00;;
48823;SDS011;34640;53.590;10.054;2023-02-11T14:39:31;26.27;;;3.90;;
48823;SDS011;34640;53.590;10.054;2023-02-11T14:42:17;29.30;;;3.58;;
48823;SDS011;34640;53.590;10.054;2023-02-11T14:44:55;17.48;;;3.15;;
48823;SDS011;34640;53.590;10.054;2023-02-11T14:47:33;18.15;;;3.08;;
48823;SDS011;34640;53.590;10.054;2023-02-11T14:50:14;16.90;;;3.63;;
48823;SDS011;34640;53.590;10.054;2023-02-11T14:52:50;16.87;;;3.50;;
48823;SDS011;34640;53.590;10.054;2023-02-11T14:55:27;19.80;;;4.15;;
48823;SDS011;34640;53.590;10.054;2023-02-11T14:58:11;16.83;;;3.50;;
48823;SDS011;34640;53.590;10.054;2023-02-11T15:00:50;18.40;;;3.17;;
48823;SDS011;34640;53.590;10.054;2023-02-11T15:03:27;17.88;;;3.53;;
48823;SDS011;34640;53.590;10.054;2023-02-11T15:06:07;11.82;;;2.55;;
48823;SDS011;34640;53.590;10.054;2023-02-11T15:08:50;14.07;;;3.10;;
48823;SDS011;34640;53.590;10.054;2023-02-11T15:11:26;15.77;;;2.78;;
48823;SDS011;34640;53.590;10.054;2023-02-11T15:14:05;15.05;;;2.75;;
48823;SDS011;34640;53.590;10.054;2023-02-11T15:16:43;16.45;;;4.50;;
48823;SDS011;34640;53.590;10.054;2023-02-11T15:19:19;13.20;;;3.53;;
48823;SDS011;34640;53.590;10.054;2023-02-11T15:21:57;20.73;;;3.90;;
48823;SDS011;34640;53.590;10.054;2023-02-11T15:24:31;16.63;;;3.78;;
48823;SDS011;34640;53.590;10.054;2023-02-11T15:27:10;22.50;;;3.55;;
48823;SDS011;34640;53.590;10.054;2023-02-11T15:29:47;14.52;;;3.35;;
48823;SDS011;34640;53.590;10.054;2023-02-11T15:32:24;54.85;;;9.30;;
48823;SDS011;34640;53.590;10.054;2023-02-11T15:34:59;31.35;;;6.22;;
48823;SDS011;34640;53.590;10.054;2023-02-11T15:37:33;28.65;;;5.95;;